Time;durP1;ratioP1;P1;durP2;ratioP2;P2;SDS_P1;SDS_P2;PMS_P1;PMS_P2;Temp;Humidity;BMP_temperature;BMP_pressure;BME280_temperature;BME280_humidity;BME280_pressure;Samples;Min_cycle;Max_cycle;Signal;HPM_P1;HPM_P2
2021/06/29 00:01:02;;;;;;;5.40;3.22;;;;;;;16.32;100.00;96119.53;5009091;28;20029;-80
2021/06/29 00:03:28;;;;;;;5.43;2.83;;;;;;;16.29;100.00;96107.47;4985002;28;20076;-80
2021/06/29 00:05:53;;;;;;;4.75;3.50;;;;;;;16.32;100.00;96093.00;4978080;28;20049;-80
2021/06/29 00:08:19;;;;;;;6.00;3.08;;;;;;;16.28;100.00;96092.56;4993094;28;20049;-80
2021/06/29 00:10:46;;;;;;;4.87;3.37;;;;;;;16.35;100.00;96089.94;5002292;28;20126;-79
2021/06/29 00:13:12;;;;;;;4.23;2.80;;;;;;;16.24;100.00;96084.19;5004604;28;20065;-79
2021/06/29 00:15:38;;;;;;;5.63;3.43;;;;;;;16.19;100.00;96089.25;4990640;28;20113;-80
2021/06/29 00:18:05;;;;;;;6.28;3.40;;;;;;;16.26;100.00;96084.81;4995090;28;20061;-80
2021/06/29 00:20:31;;;;;;;5.72;3.58;;;;;;;16.29;100.00;96078.28;4990525;28;20022;-80
2021/06/29 00:22:57;;;;;;;5.05;3.45;;;;;;;16.29;100.00;96072.16;5010160;28;20042;-80
2021/06/29 00:25:23;;;;;;;7.68;3.17;;;;;;;16.22;100.00;96067.63;4994073;28;20068;-80
2021/06/29 00:27:49;;;;;;;6.35;3.80;;;;;;;16.13;100.00;96076.81;4993068;28;20034;-80
2021/06/29 00:30:15;;;;;;;5.28;3.72;;;;;;;16.04;100.00;96083.28;5009914;28;20088;-80
2021/06/29 00:32:42;;;;;;;6.43;3.88;;;;;;;15.98;100.00;96084.06;4995166;28;20100;-80
2021/06/29 00:35:08;;;;;;;6.60;3.90;;;;;;;15.86;100.00;96078.53;4996256;28;20040;-80
2021/06/29 00:37:34;;;;;;;6.28;3.95;;;;;;;15.90;100.00;96074.47;4988053;28;20041;-80
2021/06/29 00:40:01;;;;;;;9.95;4.32;;;;;;;15.96;100.00;96073.69;5008228;28;20041;-79
2021/06/29 00:42:26;;;;;;;5.40;4.13;;;;;;;16.03;100.00;96090.44;4992181;28;20524;-80
2021/06/29 00:44:52;;;;;;;5.93;4.05;;;;;;;16.11;100.00;96088.63;5011389;28;20109;-80
2021/06/29 00:47:18;;;;;;;6.60;4.68;;;;;;;16.18;100.00;96086.81;4994317;28;20038;-78
2021/06/29 00:49:44;;;;;;;6.22;3.80;;;;;;;16.19;100.00;96086.59;4992832;28;20025;-80
2021/06/29 00:52:14;;;;;;;7.35;3.85;;;;;;;16.09;100.00;96086.16;4993676;28;20037;-79
2021/06/29 00:54:41;;;;;;;8.15;4.15;;;;;;;16.09;100.00;96099.41;4998607;28;20044;-80
2021/06/29 00:57:11;;;;;;;8.43;4.10;;;;;;;16.16;100.00;96110.91;4987197;28;20111;-80
2021/06/29 00:59:37;;;;;;;5.30;4.07;;;;;;;16.01;100.00;96121.63;4989599;28;20065;-79
2021/06/29 01:02:03;;;;;;;8.47;4.57;;;;;;;16.04;100.00;96139.00;4994308;28;20046;-77
2021/06/29 01:04:31;;;;;;;8.47;4.80;;;;;;;15.99;100.00;96134.25;4987356;28;20259;-80
2021/06/29 01:06:57;;;;;;;9.37;5.20;;;;;;;16.03;100.00;96126.75;4975156;28;20089;-79
2021/06/29 01:09:23;;;;;;;9.53;5.70;;;;;;;16.11;100.00;96118.63;4992826;28;20030;-80
2021/06/29 01:11:49;;;;;;;8.10;5.17;;;;;;;16.05;100.00;96113.28;4993040;28;20033;-78
2021/06/29 01:14:17;;;;;;;8.80;4.78;;;;;;;16.05;100.00;96108.78;4991771;28;20026;-80
2021/06/29 01:16:45;;;;;;;6.77;4.37;;;;;;;16.13;100.00;96100.69;4992766;28;20022;-80
2021/06/29 01:19:13;;;;;;;5.13;3.63;;;;;;;16.09;100.00;96096.75;5010577;28;20676;-78
2021/06/29 01:21:41;;;;;;;7.93;5.07;;;;;;;15.98;100.00;96092.03;5007583;28;20115;-80
2021/06/29 01:24:13;;;;;;;7.13;4.20;;;;;;;15.95;100.00;96092.41;4991543;28;20037;-79
2021/06/29 01:26:46;;;;;;;6.25;4.28;;;;;;;15.95;100.00;96097.72;4984524;28;20034;-80
2021/06/29 01:29:12;;;;;;;8.65;4.47;;;;;;;15.92;100.00;96103.41;4978771;28;20794;-79
2021/06/29 01:31:38;;;;;;;6.37;4.50;;;;;;;15.98;100.00;96110.59;4990966;28;20064;-80
2021/06/29 01:34:05;;;;;;;7.75;4.80;;;;;;;16.01;100.00;96118.16;5009245;28;20034;-79
2021/06/29 01:36:37;;;;;;;6.40;4.30;;;;;;;16.01;100.00;96120.81;4991180;28;20025;-80
2021/06/29 01:39:07;;;;;;;6.47;4.30;;;;;;;16.05;100.00;96115.94;4983486;28;20034;-80
2021/06/29 01:41:34;;;;;;;5.40;3.85;;;;;;;16.06;100.00;96129.00;5011098;28;20034;-81
2021/06/29 01:44:07;;;;;;;9.13;4.20;;;;;;;16.06;100.00;96131.66;5011529;28;20092;-80
2021/06/29 01:46:37;;;;;;;8.57;4.50;;;;;;;16.01;100.00;96134.06;4994038;28;20495;-80
2021/06/29 01:49:03;;;;;;;7.67;4.53;;;;;;;15.95;100.00;96129.56;4975598;28;20475;-80
2021/06/29 01:51:29;;;;;;;10.83;5.27;;;;;;;15.95;100.00;96126.91;5008192;28;20044;-80
2021/06/29 01:53:55;;;;;;;9.27;4.80;;;;;;;15.95;100.00;96125.06;4991427;28;20144;-80
2021/06/29 01:56:35;;;;;;;6.90;4.17;;;;;;;15.96;100.00;96128.53;4989129;28;20026;-79
2021/06/29 01:59:07;;;;;;;5.53;3.97;;;;;;;15.97;100.00;96127.53;4992947;28;20037;-80
2021/06/29 02:01:33;;;;;;;6.28;4.35;;;;;;;16.04;100.00;96131.03;5009660;28;20104;-78
2021/06/29 02:03:59;;;;;;;5.53;3.50;;;;;;;16.01;100.00;96123.47;4993141;28;20491;-80
2021/06/29 02:06:25;;;;;;;6.00;3.63;;;;;;;16.00;100.00;96124.50;4992618;28;20088;-77
2021/06/29 02:08:54;;;;;;;5.80;3.70;;;;;;;16.02;100.00;96114.50;4994075;28;20048;-79
2021/06/29 02:11:20;;;;;;;5.90;3.45;;;;;;;16.03;100.00;96110.84;4986639;28;20038;-80
2021/06/29 02:13:45;;;;;;;6.15;3.40;;;;;;;16.05;100.00;96110.63;4978581;28;20030;-80
2021/06/29 02:16:11;;;;;;;5.90;3.60;;;;;;;15.99;100.00;96101.63;4991714;28;20034;-79
2021/06/29 02:18:37;;;;;;;6.60;3.67;;;;;;;16.03;100.00;96098.41;4975085;28;20029;-79
2021/06/29 02:21:05;;;;;;;4.97;3.65;;;;;;;15.96;100.00;96100.19;4991327;28;20183;-80
2021/06/29 02:23:31;;;;;;;6.18;3.00;;;;;;;15.88;100.00;96103.00;5009894;28;20092;-80
2021/06/29 02:25:57;;;;;;;6.35;3.00;;;;;;;15.95;100.00;96111.00;4988473;28;20529;-79
2021/06/29 02:28:23;;;;;;;5.47;3.33;;;;;;;15.89;100.00;96114.41;4990292;28;20124;-79
2021/06/29 02:30:48;;;;;;;8.10;2.93;;;;;;;15.86;100.00;96125.41;4966871;28;20030;-79
2021/06/29 02:33:14;;;;;;;6.20;2.55;;;;;;;15.82;100.00;96129.47;4991049;28;20045;-78
2021/06/29 02:35:40;;;;;;;4.07;2.43;;;;;;;15.77;100.00;96120.28;4991238;28;20038;-80
2021/06/29 02:38:06;;;;;;;2.70;2.17;;;;;;;15.83;100.00;96125.78;5009371;28;20021;-79
2021/06/29 02:40:32;;;;;;;5.40;2.80;;;;;;;15.77;100.00;96128.22;5005231;28;20105;-79
2021/06/29 02:42:59;;;;;;;7.07;3.23;;;;;;;15.74;100.00;96120.66;4990950;28;20022;-79
2021/06/29 02:45:25;;;;;;;5.63;2.70;;;;;;;15.76;100.00;96120.44;4975122;28;20045;-79
2021/06/29 02:47:52;;;;;;;6.87;3.27;;;;;;;15.76;100.00;96120.44;5008954;28;20442;-79
2021/06/29 02:50:19;;;;;;;4.27;3.10;;;;;;;15.71;100.00;96129.00;4989916;28;20536;-80
2021/06/29 02:52:45;;;;;;;4.00;2.73;;;;;;;15.81;100.00;96117.22;4993650;28;20022;-79
2021/06/29 02:55:13;;;;;;;6.03;2.83;;;;;;;15.71;100.00;96113.09;4979885;28;20107;-77
2021/06/29 02:57:40;;;;;;;4.93;2.77;;;;;;;15.75;100.00;96111.69;5006276;28;20048;-77
2021/06/29 03:00:13;;;;;;;4.93;2.20;;;;;;;15.75;100.00;96111.69;5002794;28;20171;-79
2021/06/29 03:02:39;;;;;;;4.45;2.95;;;;;;;15.80;100.00;96113.78;4988017;28;20153;-80
2021/06/29 03:05:05;;;;;;;10.70;4.27;;;;;;;15.78;100.00;96113.13;4974918;28;20121;-80
2021/06/29 03:07:31;;;;;;;6.20;2.90;;;;;;;15.74;100.00;96101.28;4993513;28;20500;-80
2021/06/29 03:09:57;;;;;;;5.43;2.33;;;;;;;15.72;100.00;96112.06;4988707;28;20026;-80
2021/06/29 03:12:23;;;;;;;4.40;2.70;;;;;;;15.74;100.00;96110.06;4977454;28;20069;-80
2021/06/29 03:14:59;;;;;;;4.40;2.50;;;;;;;15.74;100.00;96099.44;4993065;28;20053;-80
2021/06/29 03:17:25;;;;;;;4.80;2.80;;;;;;;15.81;100.00;96106.63;4975553;28;20034;-80
2021/06/29 03:19:52;;;;;;;4.80;2.50;;;;;;;15.84;100.00;96107.06;4989164;28;20111;-80
2021/06/29 03:22:17;;;;;;;3.30;2.42;;;;;;;15.95;100.00;96101.19;4990955;28;20141;-79
2021/06/29 03:24:43;;;;;;;4.10;2.65;;;;;;;15.99;100.00;96104.28;4992347;28;20530;-80
2021/06/29 03:27:09;;;;;;;5.50;2.70;;;;;;;15.95;100.00;96100.38;4987959;28;20545;-80
2021/06/29 03:29:36;;;;;;;5.70;2.95;;;;;;;15.99;100.00;96093.66;5009160;28;20018;-80
2021/06/29 03:32:01;;;;;;;4.90;2.97;;;;;;;15.99;100.00;96086.50;4994654;28;20038;-82
2021/06/29 03:34:27;;;;;;;4.20;2.53;;;;;;;15.99;100.00;96088.34;4995043;28;20114;-80
2021/06/29 03:36:53;;;;;;;4.30;3.15;;;;;;;15.97;100.00;96079.78;4992876;28;20034;-80
2021/06/29 03:39:19;;;;;;;5.03;2.97;;;;;;;15.99;100.00;96078.56;5012324;28;20038;-78
2021/06/29 03:41:45;;;;;;;4.43;2.80;;;;;;;16.00;100.00;96097.97;4994510;28;20100;-80
2021/06/29 03:44:11;;;;;;;4.95;2.83;;;;;;;15.95;100.00;96103.03;4978529;28;20026;-79
2021/06/29 03:46:37;;;;;;;4.25;2.92;;;;;;;16.04;100.00;96104.50;4995072;28;20042;-80
2021/06/29 03:49:04;;;;;;;4.93;3.08;;;;;;;16.00;100.00;96101.44;4981897;28;20034;-79
2021/06/29 03:51:29;;;;;;;6.10;2.88;;;;;;;16.03;100.00;96100.22;4997366;28;20117;-79
2021/06/29 03:53:55;;;;;;;5.85;2.50;;;;;;;15.91;100.00;96091.19;4995478;28;20487;-79
2021/06/29 03:56:27;;;;;;;4.97;2.42;;;;;;;15.98;100.00;96092.03;4993248;28;20530;-79
2021/06/29 03:59:05;;;;;;;4.53;2.70;;;;;;;15.93;100.00;96089.16;5012587;28;20049;-80
2021/06/29 04:01:32;;;;;;;3.22;2.42;;;;;;;16.06;100.00;96086.53;5019426;28;20040;-79
2021/06/29 04:03:58;;;;;;;7.13;2.75;;;;;;;16.06;100.00;96078.59;4987695;28;20849;-78
2021/06/29 04:06:25;;;;;;;4.22;3.00;;;;;;;16.09;100.00;96088.81;4993070;28;20038;-78
2021/06/29 04:08:52;;;;;;;3.83;2.90;;;;;;;16.08;100.00;96089.84;4988922;28;20069;-79
2021/06/29 04:11:19;;;;;;;4.68;2.60;;;;;;;15.97;100.00;96098.34;5006561;28;20211;-79
2021/06/29 04:13:44;;;;;;;5.43;3.00;;;;;;;15.91;100.00;96084.03;4976625;28;20506;-79
2021/06/29 04:16:10;;;;;;;5.38;3.33;;;;;;;15.91;100.00;96097.31;4993081;28;20038;-78
2021/06/29 04:18:36;;;;;;;5.25;3.53;;;;;;;15.94;100.00;96093.44;4992988;28;21570;-77
2021/06/29 04:21:02;;;;;;;5.13;3.63;;;;;;;15.84;100.00;96095.63;4976227;28;20080;-77
2021/06/29 04:23:28;;;;;;;5.32;3.15;;;;;;;15.90;100.00;96087.72;4992613;28;20104;-78
2021/06/29 04:25:54;;;;;;;4.72;3.47;;;;;;;15.89;100.00;96085.25;4992860;28;20087;-80
2021/06/29 04:28:19;;;;;;;5.93;2.95;;;;;;;15.88;100.00;96091.56;4978022;28;20029;-79
2021/06/29 04:30:46;;;;;;;4.80;2.70;;;;;;;15.75;100.00;96090.47;5005416;28;20377;-79
2021/06/29 04:33:12;;;;;;;8.05;3.58;;;;;;;15.86;100.00;96088.28;4989744;28;20710;-79
2021/06/29 04:35:37;;;;;;;5.10;3.10;;;;;;;15.85;100.00;96090.13;4993103;28;20034;-78
2021/06/29 04:38:03;;;;;;;7.03;2.80;;;;;;;15.83;100.00;96078.91;4985940;28;20026;-79
2021/06/29 04:40:29;;;;;;;3.72;2.75;;;;;;;15.80;100.00;96084.59;4976862;28;20045;-77
2021/06/29 04:42:55;;;;;;;4.03;2.95;;;;;;;15.77;100.00;96077.03;5009047;28;20835;-78
2021/06/29 04:45:22;;;;;;;3.92;2.53;;;;;;;15.71;100.00;96078.63;4993843;28;20036;-79
2021/06/29 04:47:48;;;;;;;5.40;3.20;;;;;;;15.72;100.00;96066.19;5006761;28;20025;-79
2021/06/29 04:50:17;;;;;;;5.03;2.92;;;;;;;15.77;100.00;96064.59;4991533;28;20042;-79
2021/06/29 04:52:43;;;;;;;5.40;3.05;;;;;;;15.90;100.00;96061.19;4994108;28;20030;-78
2021/06/29 04:55:10;;;;;;;4.88;2.60;;;;;;;15.94;100.00;96064.28;4992894;28;20040;-80
2021/06/29 04:57:37;;;;;;;3.38;2.47;;;;;;;15.94;100.00;96056.31;4993565;28;20018;-78
2021/06/29 05:00:09;;;;;;;5.03;2.95;;;;;;;15.67;100.00;96055.38;5004339;28;20034;-78
2021/06/29 05:02:35;;;;;;;4.60;2.30;;;;;;;15.67;100.00;96044.75;4996737;28;20056;-78
2021/06/29 05:05:02;;;;;;;6.53;2.83;;;;;;;15.59;100.00;96028.97;5008973;28;20022;-78
2021/06/29 05:07:28;;;;;;;6.13;3.30;;;;;;;15.48;100.00;96025.03;4992269;28;20141;-78
2021/06/29 05:09:53;;;;;;;4.00;2.95;;;;;;;15.43;100.00;96016.88;4994408;28;20166;-78
2021/06/29 05:12:19;;;;;;;5.90;2.90;;;;;;;15.50;100.00;96037.09;4993276;28;20108;-78
2021/06/29 05:14:45;;;;;;;5.38;3.20;;;;;;;15.68;100.00;96054.34;5009915;28;20753;-79
2021/06/29 05:17:10;;;;;;;5.50;3.07;;;;;;;15.82;100.00;96068.47;4993269;28;20503;-78
2021/06/29 05:19:38;;;;;;;3.53;2.33;;;;;;;15.79;100.00;96061.72;4990344;28;20105;-79
2021/06/29 05:22:05;;;;;;;4.80;2.55;;;;;;;15.87;100.00;96055.47;4980870;28;20033;-79
2021/06/29 05:24:30;;;;;;;6.82;2.60;;;;;;;15.76;100.00;96039.09;4979797;28;20486;-80
2021/06/29 05:26:56;;;;;;;4.55;2.05;;;;;;;15.96;100.00;96031.25;4975693;28;20037;-79
2021/06/29 05:29:22;;;;;;;4.38;2.05;;;;;;;16.02;100.00;96025.13;4984861;28;20076;-80
2021/06/29 05:31:48;;;;;;;4.95;2.10;;;;;;;15.89;100.00;96011.00;4987896;28;20114;-79
2021/06/29 05:34:13;;;;;;;4.23;1.83;;;;;;;15.84;100.00;96005.47;4989016;28;20034;-77
2021/06/29 05:36:39;;;;;;;3.90;1.85;;;;;;;15.93;100.00;95999.00;4980295;28;20025;-79
2021/06/29 05:39:05;;;;;;;3.70;1.80;;;;;;;15.92;100.00;95994.69;5007491;28;20054;-80
2021/06/29 05:41:31;;;;;;;3.13;1.85;;;;;;;15.83;100.00;95987.91;4974700;28;20033;-79
2021/06/29 05:43:57;;;;;;;4.43;1.80;;;;;;;15.82;100.00;95980.97;4991245;28;20033;-80
2021/06/29 05:46:23;;;;;;;4.72;2.58;;;;;;;15.69;100.00;95966.69;5009137;28;20065;-79
2021/06/29 05:48:51;;;;;;;2.78;1.98;;;;;;;15.51;100.00;95951.25;4991304;28;20022;-79
2021/06/29 05:51:17;;;;;;;3.65;1.90;;;;;;;15.54;100.00;95942.09;4991117;28;20073;-79
2021/06/29 05:53:42;;;;;;;3.40;1.80;;;;;;;15.61;100.00;95937.63;4992860;28;20037;-79
2021/06/29 05:56:10;;;;;;;5.63;2.17;;;;;;;15.70;100.00;95936.50;5007730;28;20127;-79
2021/06/29 05:58:37;;;;;;;3.73;2.17;;;;;;;15.73;100.00;95917.53;4991486;28;20027;-78
2021/06/29 06:01:04;;;;;;;3.27;2.17;;;;;;;15.72;100.00;95915.06;4991170;28;20025;-79
2021/06/29 06:03:30;;;;;;;4.00;2.45;;;;;;;15.79;100.00;95921.22;4976010;28;20128;-78
2021/06/29 06:05:57;;;;;;;6.95;2.90;;;;;;;15.92;100.00;95923.91;4973513;28;20491;-80
2021/06/29 06:08:23;;;;;;;4.20;1.80;;;;;;;16.16;100.00;95935.81;4983033;28;20022;-78
2021/06/29 06:10:50;;;;;;;3.53;2.03;;;;;;;16.27;100.00;95963.59;4987260;28;20108;-79
2021/06/29 06:13:16;;;;;;;4.80;2.55;;;;;;;16.55;100.00;96015.69;5003858;28;20030;-79
2021/06/29 06:15:42;;;;;;;4.15;2.70;;;;;;;16.48;100.00;96040.38;4991501;28;20029;-80
2021/06/29 06:18:08;;;;;;;7.53;4.50;;;;;;;16.46;100.00;96020.34;4991541;28;20476;-75
2021/06/29 06:20:37;;;;;;;5.55;2.90;;;;;;;16.44;100.00;95985.25;4987505;28;20037;-78
2021/06/29 06:23:04;;;;;;;4.30;1.77;;;;;;;16.36;100.00;95977.47;5007344;28;20621;-79
2021/06/29 06:25:29;;;;;;;9.57;2.22;;;;;;;16.52;100.00;96003.63;4992642;28;20061;-77
2021/06/29 06:27:55;;;;;;;4.65;2.30;;;;;;;16.55;100.00;95997.09;4999138;28;20034;-78
2021/06/29 06:30:21;;;;;;;5.28;2.70;;;;;;;16.43;100.00;95983.59;5012779;28;20092;-78
2021/06/29 06:32:47;;;;;;;4.35;2.65;;;;;;;16.44;100.00;95980.75;4995943;28;20053;-79
2021/06/29 06:35:13;;;;;;;5.43;2.75;;;;;;;16.71;100.00;95978.94;4978294;28;20030;-76
2021/06/29 06:37:39;;;;;;;3.78;2.53;;;;;;;16.84;100.00;95980.00;5002322;28;20105;-79
2021/06/29 06:40:06;;;;;;;4.00;2.38;;;;;;;17.01;100.00;95978.56;4995513;28;20014;-79
2021/06/29 06:42:32;;;;;;;3.20;2.00;;;;;;;17.10;100.00;95971.19;4997305;28;20033;-78
2021/06/29 06:44:58;;;;;;;5.88;2.60;;;;;;;16.89;100.00;95956.28;4998979;28;20536;-79
2021/06/29 06:47:24;;;;;;;5.00;2.58;;;;;;;16.72;100.00;95947.88;4996259;28;20065;-77
2021/06/29 06:49:51;;;;;;;3.55;2.40;;;;;;;16.59;100.00;95948.69;4995516;28;20038;-78
2021/06/29 06:52:18;;;;;;;5.97;5.15;;;;;;;16.79;100.00;95958.53;5017266;28;20049;-78
2021/06/29 06:54:44;;;;;;;4.80;3.25;;;;;;;17.07;100.00;95988.38;4998321;28;20079;-79
2021/06/29 06:57:10;;;;;;;13.85;9.68;;;;;;;17.22;100.00;96013.91;5017512;28;20076;-78
2021/06/29 06:59:38;;;;;;;10.18;7.63;;;;;;;17.09;100.00;95998.78;5000439;28;20026;-77
2021/06/29 07:02:04;;;;;;;7.50;4.72;;;;;;;17.18;100.00;95986.91;5005670;28;20088;-78
2021/06/29 07:04:30;;;;;;;4.95;2.85;;;;;;;17.35;100.00;95992.63;5001217;28;20025;-76
2021/06/29 07:06:56;;;;;;;4.88;2.72;;;;;;;17.47;100.00;95998.94;5010252;28;20033;-79
2021/06/29 07:09:22;;;;;;;5.25;2.88;;;;;;;17.72;100.00;95987.63;4994635;28;20501;-79
2021/06/29 07:11:51;;;;;;;4.47;2.60;;;;;;;17.64;100.00;95994.81;4997167;28;20030;-79
2021/06/29 07:14:17;;;;;;;5.40;2.53;;;;;;;17.91;100.00;95997.41;5013949;28;20092;-79
2021/06/29 07:16:43;;;;;;;3.15;2.25;;;;;;;17.73;100.00;95987.38;4999302;28;20084;-76
2021/06/29 07:19:09;;;;;;;4.13;1.98;;;;;;;18.05;100.00;95983.00;4992361;28;20763;-78
2021/06/29 07:35:11;;;;;;;4.53;2.80;;;;;;;21.28;81.13;95951.31;5171529;27;20654;-79
2021/06/29 07:37:37;;;;;;;6.53;4.43;;;;;;;22.29;76.06;95954.50;5097879;27;20040;-79
2021/06/29 07:40:03;;;;;;;3.92;1.70;;;;;;;22.95;74.00;95941.44;5103631;28;20039;-80
2021/06/29 07:42:29;;;;;;;2.10;1.48;;;;;;;22.24;75.97;95948.25;5098961;28;20066;-80
2021/06/29 07:44:55;;;;;;;2.13;1.27;;;;;;;20.80;81.35;95935.50;5091564;28;20106;-80
2021/06/29 07:47:20;;;;;;;3.92;1.58;;;;;;;21.95;75.89;95939.34;5082933;28;20043;-80
2021/06/29 07:49:46;;;;;;;2.50;1.60;;;;;;;23.51;67.64;95928.03;5115707;28;20058;-80
2021/06/29 07:52:12;;;;;;;3.05;1.70;;;;;;;24.12;61.89;95928.81;5085969;28;20095;-80
2021/06/29 07:54:38;;;;;;;1.95;1.20;;;;;;;25.36;59.11;95928.81;5119398;28;20039;-79
2021/06/29 07:57:03;;;;;;;2.17;1.38;;;;;;;25.66;58.78;95928.19;5113416;28;20040;-80
2021/06/29 07:59:29;;;;;;;4.00;1.90;;;;;;;25.03;63.25;95940.69;5094939;28;20030;-81
2021/06/29 08:01:55;;;;;;;3.40;1.42;;;;;;;24.90;61.73;95940.03;5111193;28;20036;-82
2021/06/29 08:04:21;;;;;;;5.13;1.70;;;;;;;26.87;55.27;95936.88;5107282;28;20074;-80
2021/06/29 08:06:46;;;;;;;1.77;1.30;;;;;;;25.51;55.07;95928.09;5090326;28;20028;-80
2021/06/29 08:09:12;;;;;;;2.60;1.13;;;;;;;25.51;56.29;95928.88;5100156;28;20019;-81
2021/06/29 08:11:38;;;;;;;6.70;3.92;;;;;;;26.47;55.92;95919.59;5118796;28;20293;-80
2021/06/29 08:14:03;;;;;;;6.00;3.53;;;;;;;27.34;51.10;95916.88;5103132;28;20031;-80
2021/06/29 08:16:29;;;;;;;3.00;1.25;;;;;;;27.31;49.96;95922.84;5110816;28;20081;-80
2021/06/29 08:18:55;;;;;;;2.85;1.50;;;;;;;27.44;50.66;95922.25;5106322;28;20031;-81
2021/06/29 08:21:21;;;;;;;2.78;1.65;;;;;;;27.42;51.10;95915.50;5109450;28;20051;-80
2021/06/29 08:23:47;;;;;;;2.03;1.30;;;;;;;27.56;50.21;95918.44;5095469;28;20045;-79
2021/06/29 08:26:12;;;;;;;3.15;1.50;;;;;;;28.01;48.62;95919.41;5111731;28;20084;-82
2021/06/29 08:28:38;;;;;;;3.42;1.38;;;;;;;26.69;52.64;95926.59;5117627;28;20062;-82
2021/06/29 08:31:05;;;;;;;5.28;1.48;;;;;;;26.98;51.24;95924.19;5112290;28;20095;-81
2021/06/29 08:33:31;;;;;;;2.92;1.52;;;;;;;27.46;50.13;95914.72;5112052;28;20016;-81
2021/06/29 08:35:57;;;;;;;2.83;1.45;;;;;;;28.92;46.41;95906.38;5091592;28;20048;-81
2021/06/29 08:38:23;;;;;;;1.88;1.30;;;;;;;28.75;46.00;95896.78;5096050;28;20389;-81
2021/06/29 08:40:49;;;;;;;1.90;1.08;;;;;;;29.01;42.99;95910.13;5100021;28;20090;-81
2021/06/29 08:43:16;;;;;;;2.97;1.50;;;;;;;27.56;47.65;95907.63;5100260;28;20506;-81
2021/06/29 08:45:42;;;;;;;5.13;1.52;;;;;;;28.70;44.15;95902.22;5110639;28;20119;-81
2021/06/29 08:48:08;;;;;;;3.05;1.23;;;;;;;28.54;45.26;95906.13;5101208;28;20598;-81
2021/06/29 08:50:35;;;;;;;1.85;1.20;;;;;;;28.08;45.62;95898.28;5097506;28;20103;-81
2021/06/29 08:53:03;;;;;;;4.57;1.27;;;;;;;28.19;46.83;95905.22;5080165;28;20024;-81
2021/06/29 08:55:35;;;;;;;2.22;1.35;;;;;;;27.68;46.30;95903.53;5101690;28;20099;-81
2021/06/29 08:58:01;;;;;;;2.47;1.40;;;;;;;29.01;42.57;95897.41;5093423;28;20040;-80
2021/06/29 09:00:26;;;;;;;3.70;2.00;;;;;;;29.51;42.71;95889.84;5074294;28;20024;-82
2021/06/29 09:02:52;;;;;;;3.35;1.20;;;;;;;29.11;43.43;95894.59;5110304;28;20031;-80
2021/06/29 09:05:21;;;;;;;1.65;1.30;;;;;;;29.04;40.67;95894.13;5095585;28;20686;-81
2021/06/29 09:07:49;;;;;;;1.98;1.27;;;;;;;30.51;40.40;95877.16;5099491;28;20114;-83
2021/06/29 09:10:14;;;;;;;2.78;1.52;;;;;;;30.38;40.31;95887.97;5083914;28;20016;-80
2021/06/29 09:12:48;;;;;;;3.47;1.30;;;;;;;29.28;40.96;95886.03;5085773;28;20042;-79
2021/06/29 09:15:37;;;;;;;2.13;1.17;;;;;;;30.52;40.39;95865.22;5094751;28;20039;-82
2021/06/29 09:18:06;;;;;;;1.50;1.13;;;;;;;29.53;42.46;95867.88;5084932;28;20036;-80
2021/06/29 09:20:42;;;;;;;1.73;1.23;;;;;;;31.30;38.71;95859.31;5098636;28;20023;-82
2021/06/29 09:23:12;;;;;;;1.73;1.00;;;;;;;31.23;36.57;95860.50;5072998;28;20024;-81
2021/06/29 09:25:38;;;;;;;5.68;3.83;;;;;;;31.24;38.94;95864.03;5095182;28;20115;-81
2021/06/29 09:28:05;;;;;;;3.15;2.20;;;;;;;33.18;34.35;95850.81;5102247;28;20031;-81
2021/06/29 09:31:07;;;;;;;1.90;1.08;;;;;;;31.48;36.20;95855.72;5099433;28;20059;-81
2021/06/29 09:33:36;;;;;;;1.50;1.10;;;;;;;33.56;32.97;95851.94;5082082;28;20043;-81
2021/06/29 09:36:10;;;;;;;3.88;1.40;;;;;;;33.17;34.14;95857.41;5073301;28;20063;-81
2021/06/29 09:38:38;;;;;;;2.28;1.15;;;;;;;31.81;35.48;95848.25;5070267;28;20036;-81
2021/06/29 09:41:07;;;;;;;1.58;1.10;;;;;;;33.08;34.02;95846.44;5094025;28;20021;-80
2021/06/29 09:43:41;;;;;;;3.28;1.27;;;;;;;32.56;34.59;95846.91;5085531;28;20390;-81
2021/06/29 09:46:13;;;;;;;3.03;1.35;;;;;;;32.18;32.72;95843.66;5109779;27;20064;-83
2021/06/29 09:48:54;;;;;;;2.22;1.20;;;;;;;32.24;33.11;95838.91;5097186;28;20038;-81
2021/06/29 09:51:26;;;;;;;2.42;1.10;;;;;;;31.55;36.43;95839.00;5070650;28;20035;-81
2021/06/29 09:53:52;;;;;;;;;;;;;;;32.31;35.65;95840.09;5077063;28;20032;-81
2021/06/29 09:56:23;;;;;;;1.35;1.00;;;;;;;30.89;38.81;95849.19;5075344;28;19962;-82
2021/06/29 09:58:57;;;;;;;7.13;1.65;;;;;;;31.67;37.27;95839.31;5080191;28;20481;-81
2021/06/29 10:01:28;;;;;;;3.45;1.33;;;;;;;32.52;34.68;95840.44;5070356;28;20036;-82
2021/06/29 10:03:55;;;;;;;1.90;1.10;;;;;;;30.50;37.58;95831.34;5089435;28;20037;-82
2021/06/29 10:06:22;;;;;;;2.95;1.00;;;;;;;30.48;40.75;95825.41;5081199;28;20028;-82
2021/06/29 10:08:50;;;;;;;2.42;1.70;;;;;;;30.07;40.72;95834.13;5089601;28;20065;-81
2021/06/29 10:11:18;;;;;;;2.85;1.17;;;;;;;29.84;41.01;95824.94;5061132;28;20028;-81
2021/06/29 10:13:48;;;;;;;2.38;1.20;;;;;;;31.59;38.02;95812.81;5089350;28;20032;-82
2021/06/29 10:16:15;;;;;;;1.88;1.30;;;;;;;31.58;35.47;95803.88;5067963;28;20035;-81
2021/06/29 10:21:34;;;;;;;1.83;1.33;;;;;;;31.51;39.43;95798.03;5097325;28;20566;-81
2021/06/29 10:24:04;;;;;;;4.50;1.30;;;;;;;33.02;37.67;95794.00;5105909;28;20011;-80
2021/06/29 10:26:32;;;;;;;1.65;1.25;;;;;;;31.46;38.21;95787.28;5094267;28;20035;-81
2021/06/29 10:28:59;;;;;;;2.60;1.50;;;;;;;31.20;37.20;95787.75;5100764;27;20028;-80
2021/06/29 10:31:28;;;;;;;2.50;1.63;;;;;;;29.76;40.15;95793.09;5096332;28;20109;-80
2021/06/29 10:33:56;;;;;;;2.05;1.35;;;;;;;30.14;38.60;95776.81;5102203;28;20012;-82
2021/06/29 10:36:23;;;;;;;3.22;1.90;;;;;;;30.03;42.21;95773.44;5098310;28;20073;-80
2021/06/29 10:38:51;;;;;;;3.15;1.48;;;;;;;28.45;42.19;95776.09;5105920;28;20030;-80
2021/06/29 10:41:21;;;;;;;3.55;1.33;;;;;;;28.86;42.57;95773.78;5094477;28;20062;-81
2021/06/29 10:43:48;;;;;;;2.08;1.40;;;;;;;30.37;40.01;95759.66;5061953;28;20025;-80
2021/06/29 10:46:40;;;;;;;2.85;1.13;;;;;;;29.28;40.17;95758.75;5095145;28;20058;-80
2021/06/29 10:49:27;;;;;;;1.85;1.10;;;;;;;28.78;41.65;95766.31;5074805;28;20032;-81
2021/06/29 10:51:54;;;;;;;1.60;1.08;;;;;;;29.40;38.44;95752.09;5107232;28;20150;-81
2021/06/29 10:54:47;;;;;;;1.92;1.10;;;;;;;30.54;38.50;95745.53;5080936;28;20051;-81
2021/06/29 10:57:18;;;;;;;6.70;4.85;;;;;;;31.54;38.04;95726.78;5089192;28;20035;-81
2021/06/29 10:59:50;;;;;;;2.30;1.30;;;;;;;29.50;40.93;95733.78;5082318;28;20036;-82
2021/06/29 11:02:35;;;;;;;3.63;1.67;;;;;;;29.25;40.53;95726.81;5085118;28;20562;-81
2021/06/29 11:05:05;;;;;;;3.13;1.67;;;;;;;29.29;39.33;95733.25;5102173;28;20048;-81
2021/06/29 11:07:31;;;;;;;1.45;1.00;;;;;;;29.12;38.50;95716.69;5088585;28;20025;-81
2021/06/29 11:09:59;;;;;;;2.58;1.20;;;;;;;27.33;44.57;95720.03;5095113;28;20110;-81
2021/06/29 11:12:31;;;;;;;1.55;1.15;;;;;;;27.12;44.57;95720.09;5070588;28;20488;-80
2021/06/29 11:15:06;;;;;;;4.22;1.60;;;;;;;28.86;42.43;95719.66;5077521;28;20032;-82
2021/06/29 11:17:47;;;;;;;3.33;1.38;;;;;;;29.13;41.49;95718.28;5082127;28;20181;-81
2021/06/29 11:20:16;;;;;;;2.05;1.30;;;;;;;28.82;41.61;95713.22;5076899;28;20034;-80
2021/06/29 11:22:53;;;;;;;1.50;1.20;;;;;;;27.73;44.88;95725.22;5081582;28;20177;-80
2021/06/29 11:25:56;;;;;;;2.15;1.20;;;;;;;28.63;42.39;95721.25;5085652;28;20463;-82
2021/06/29 11:28:37;;;;;;;2.03;1.13;;;;;;;30.76;38.57;95699.56;5073548;28;20035;-80
2021/06/29 11:31:11;;;;;;;3.05;1.20;;;;;;;29.99;39.66;95705.47;5078924;28;20498;-81
2021/06/29 11:33:51;;;;;;;3.78;1.48;;;;;;;28.43;43.26;95710.63;5089101;28;20029;-81
2021/06/29 11:36:26;;;;;;;3.53;1.40;;;;;;;27.92;42.36;95706.47;5087108;28;20024;-78
2021/06/29 11:39:22;;;;;;;3.65;1.50;;;;;;;30.21;39.21;95694.00;5073809;28;20119;-81
2021/06/29 11:42:11;;;;;;;4.65;2.17;;;;;;;31.27;37.48;95686.84;5089220;28;20530;-80
2021/06/29 11:44:40;;;;;;;3.40;2.45;;;;;;;29.08;41.21;95689.41;5100693;28;20476;-80
2021/06/29 11:47:10;;;;;;;5.93;3.88;;;;;;;31.75;37.36;95677.38;5083224;28;20036;-81
2021/06/29 11:49:48;;;;;;;2.30;1.50;;;;;;;29.90;39.77;95687.44;5069637;28;20042;-81